createdAt,value
2018-12-05T00:00:22.932Z,55.02
2018-12-05T00:00:54.530Z,55.23
2018-12-05T00:01:26.129Z,55.31
2018-12-05T00:01:57.726Z,55.30
2018-12-05T00:02:29.318Z,55.39
2018-12-05T00:03:00.921Z,55.54
2018-12-05T00:03:32.570Z,55.77
2018-12-05T00:04:04.162Z,55.54
2018-12-05T00:04:35.764Z,55.63
2018-12-05T00:05:07.358Z,55.79
2018-12-05T00:05:38.950Z,55.75
2018-12-05T00:06:10.568Z,55.77
2018-12-05T00:06:42.165Z,55.74
2018-12-05T00:07:13.772Z,55.84
2018-12-05T00:07:45.384Z,55.71
2018-12-05T00:08:16.992Z,55.93
2018-12-05T00:08:48.600Z,55.95
2018-12-05T00:09:20.198Z,55.88
2018-12-05T00:09:51.814Z,56.01
2018-12-05T00:10:23.410Z,55.91
2018-12-05T00:10:55.006Z,55.91
2018-12-05T00:11:26.598Z,56.06
2018-12-05T00:11:58.212Z,55.90
2018-12-05T00:12:29.825Z,56.05
2018-12-05T00:13:01.419Z,56.26
2018-12-05T00:13:33.018Z,56.17
2018-12-05T00:14:04.638Z,56.07
2018-12-05T00:14:36.252Z,56.12
2018-12-05T00:15:08.019Z,56.19
2018-12-05T00:15:39.615Z,56.07
2018-12-05T00:16:11.201Z,56.24
2018-12-05T00:16:42.794Z,56.25
2018-12-05T00:17:14.404Z,56.24
2018-12-05T00:17:46.016Z,56.47
2018-12-05T00:18:17.629Z,56.41
2018-12-05T00:18:49.265Z,56.37
2018-12-05T00:19:20.848Z,56.06
2018-12-05T00:19:52.449Z,56.26
2018-12-05T00:20:24.037Z,56.39
2018-12-05T00:20:55.648Z,56.38
2018-12-05T00:21:27.247Z,56.50
2018-12-05T00:21:58.860Z,56.33
2018-12-05T00:22:30.464Z,56.41
2018-12-05T00:23:02.071Z,56.42
2018-12-05T00:23:33.666Z,56.24
2018-12-05T00:24:05.292Z,56.48
2018-12-05T00:24:36.896Z,56.36
2018-12-05T00:25:08.490Z,56.15
2018-12-05T00:25:40.076Z,56.13
2018-12-05T00:26:11.674Z,56.15
2018-12-05T00:26:43.266Z,55.97
2018-12-05T00:27:14.863Z,56.12
2018-12-05T00:27:46.459Z,56.16
2018-12-05T00:28:18.054Z,56.24
2018-12-05T00:28:49.674Z,56.24
2018-12-05T00:29:21.261Z,56.34
2018-12-05T00:29:52.868Z,56.38
2018-12-05T00:30:24.477Z,56.47
2018-12-05T00:30:56.084Z,56.52
2018-12-05T00:31:27.678Z,56.25
2018-12-05T00:31:59.288Z,56.46
2018-12-05T00:32:30.886Z,56.51
2018-12-05T00:33:02.491Z,56.53
2018-12-05T00:33:34.081Z,56.34
2018-12-05T00:34:05.705Z,56.69
2018-12-05T00:34:37.307Z,56.44
2018-12-05T00:35:08.901Z,56.49
2018-12-05T00:35:40.494Z,56.61
2018-12-05T00:36:12.082Z,56.70
2018-12-05T00:36:43.674Z,56.77
2018-12-05T00:37:15.279Z,56.81
2018-12-05T00:37:46.878Z,56.77
2018-12-05T00:38:18.479Z,56.97
2018-12-05T00:38:50.102Z,56.78
2018-12-05T00:39:21.697Z,57.01
2018-12-05T00:39:53.300Z,56.91
2018-12-05T00:40:24.893Z,57.05
2018-12-05T00:40:56.503Z,57.03
2018-12-05T00:41:28.098Z,57.07
2018-12-05T00:41:59.709Z,56.81
2018-12-05T00:42:31.331Z,56.90
2018-12-05T00:43:02.939Z,56.99
2018-12-05T00:43:34.547Z,56.94
2018-12-05T00:44:06.184Z,56.76
2018-12-05T00:44:37.781Z,56.98
2018-12-05T00:45:09.387Z,56.94
2018-12-05T00:45:40.992Z,56.83
2018-12-05T00:46:12.595Z,56.63
2018-12-05T00:46:44.209Z,56.45
2018-12-05T00:47:15.820Z,56.30
2018-12-05T00:47:47.401Z,56.39
2018-12-05T00:48:18.994Z,56.39
2018-12-05T00:48:50.619Z,56.24
2018-12-05T00:49:22.232Z,56.19
2018-12-05T00:49:53.823Z,56.17
2018-12-05T00:50:25.423Z,56.08
2018-12-05T00:50:57.021Z,56.06
2018-12-05T00:51:28.630Z,55.97
2018-12-05T00:52:00.242Z,55.87
2018-12-05T00:52:31.837Z,55.95
2018-12-05T00:53:03.432Z,55.86
2018-12-05T00:53:35.030Z,55.70
2018-12-05T00:54:06.650Z,55.74
2018-12-05T00:54:38.265Z,55.73
2018-12-05T00:55:09.858Z,55.66
2018-12-05T00:55:41.460Z,55.60
2018-12-05T00:56:13.071Z,55.54
2018-12-05T00:56:44.669Z,55.47
2018-12-05T00:57:16.276Z,55.45
2018-12-05T00:57:47.889Z,55.47
2018-12-05T00:58:19.580Z,55.38
2018-12-05T00:58:51.173Z,55.33
2018-12-05T00:59:22.789Z,55.27
2018-12-05T00:59:54.376Z,55.27
2018-12-05T01:00:25.970Z,55.37
2018-12-05T01:00:57.572Z,55.21
2018-12-05T01:01:29.161Z,55.24
2018-12-05T01:02:00.760Z,55.22
2018-12-05T01:02:32.353Z,55.15
2018-12-05T01:03:03.946Z,54.97
2018-12-05T01:03:35.556Z,54.91
2018-12-05T01:04:07.192Z,54.93
2018-12-05T01:04:38.789Z,54.90
2018-12-05T01:05:10.393Z,54.83
2018-12-05T01:05:41.990Z,54.85
2018-12-05T01:06:13.597Z,54.73
2018-12-05T01:06:45.208Z,54.89
2018-12-05T01:07:16.816Z,54.90
2018-12-05T01:07:48.410Z,54.74
2018-12-05T01:08:20.018Z,54.80
2018-12-05T01:08:51.614Z,54.80
2018-12-05T01:09:23.200Z,54.73
2018-12-05T01:09:54.812Z,54.66
2018-12-05T01:10:26.416Z,54.67
2018-12-05T01:10:58.028Z,54.61
2018-12-05T01:11:29.637Z,54.59
2018-12-05T01:12:01.256Z,54.49
2018-12-05T01:12:32.854Z,54.61
2018-12-05T01:13:04.436Z,54.50
2018-12-05T01:13:36.034Z,54.52
2018-12-05T01:14:07.656Z,54.47
2018-12-05T01:14:39.301Z,54.54
2018-12-05T01:15:10.888Z,54.55
2018-12-05T01:15:42.484Z,54.48
2018-12-05T01:16:14.078Z,54.49
2018-12-05T01:16:45.688Z,54.47
2018-12-05T01:17:17.281Z,54.43
2018-12-05T01:17:48.884Z,54.56
2018-12-05T01:18:20.481Z,54.50
2018-12-05T01:18:52.096Z,54.50
2018-12-05T01:19:23.703Z,54.51
2018-12-05T01:19:55.298Z,54.49
2018-12-05T01:20:26.889Z,54.57
2018-12-05T01:20:58.491Z,54.57
2018-12-05T01:21:30.086Z,54.64
2018-12-05T01:22:01.689Z,54.63
2018-12-05T01:22:33.282Z,54.49
2018-12-05T01:23:04.889Z,54.49
2018-12-05T01:23:36.486Z,54.66
2018-12-05T01:24:08.222Z,54.49
2018-12-05T01:24:39.828Z,54.58
2018-12-05T01:25:11.430Z,54.59
2018-12-05T01:25:43.052Z,54.58
2018-12-05T01:26:14.654Z,54.51
2018-12-05T01:26:46.250Z,54.68
2018-12-05T01:27:17.843Z,54.65
2018-12-05T01:27:49.452Z,54.55
2018-12-05T01:28:21.063Z,54.59
2018-12-05T01:28:52.668Z,54.65
2018-12-05T01:29:24.285Z,54.89
2018-12-05T01:29:55.885Z,54.99
2018-12-05T01:30:27.561Z,55.05
2018-12-05T01:30:59.135Z,54.88
2018-12-05T01:31:30.734Z,55.05
2018-12-05T01:32:02.334Z,54.97
2018-12-05T01:32:33.920Z,55.18
2018-12-05T01:33:05.515Z,55.07
2018-12-05T01:33:37.110Z,55.01
2018-12-05T01:34:08.705Z,55.05
2018-12-05T01:34:40.669Z,55.09
2018-12-05T01:35:12.275Z,55.02
2018-12-05T01:35:43.870Z,55.09
2018-12-05T01:36:15.482Z,55.04
2018-12-05T01:36:47.081Z,55.33
2018-12-05T01:37:18.687Z,55.39
2018-12-05T01:37:50.293Z,55.45
2018-12-05T01:38:21.886Z,55.48
2018-12-05T01:38:53.482Z,55.48
2018-12-05T01:39:25.091Z,55.52
2018-12-05T01:39:56.687Z,55.46
2018-12-05T01:40:28.298Z,55.59
2018-12-05T01:40:59.914Z,55.61
2018-12-05T01:41:31.528Z,55.56
2018-12-05T01:42:03.108Z,55.56
2018-12-05T01:42:34.712Z,55.73
2018-12-05T01:43:06.298Z,55.77
2018-12-05T01:43:43.528Z,55.78
2018-12-05T01:44:15.164Z,55.83
2018-12-05T01:44:46.782Z,55.82
2018-12-05T01:45:18.378Z,55.67
2018-12-05T01:45:49.997Z,55.84
2018-12-05T01:46:21.608Z,55.67
2018-12-05T01:46:53.199Z,55.93
2018-12-05T01:47:24.807Z,55.85
2018-12-05T01:47:56.395Z,55.88
2018-12-05T01:48:27.995Z,55.88
2018-12-05T01:48:59.627Z,55.86
2018-12-05T01:49:31.265Z,55.84
2018-12-05T01:50:02.858Z,55.88
2018-12-05T01:50:34.454Z,55.95
2018-12-05T01:51:06.050Z,55.94
2018-12-05T01:51:37.645Z,55.93
2018-12-05T01:52:09.252Z,55.92
2018-12-05T01:52:40.849Z,55.84
2018-12-05T01:53:12.455Z,55.88
2018-12-05T01:53:44.066Z,56.02
2018-12-05T01:54:15.677Z,56.00
2018-12-05T01:54:47.302Z,56.14
2018-12-05T01:55:18.899Z,56.08
2018-12-05T01:55:50.496Z,56.02
2018-12-05T01:56:22.095Z,56.14
2018-12-05T01:56:53.680Z,56.13
2018-12-05T01:57:25.288Z,56.02
2018-12-05T01:57:56.896Z,56.23
2018-12-05T01:58:28.500Z,56.25
2018-12-05T01:59:00.112Z,56.26
2018-12-05T01:59:31.748Z,56.05
2018-12-05T02:00:03.343Z,56.24
2018-12-05T02:00:34.938Z,56.22
2018-12-05T02:01:06.520Z,56.22
2018-12-05T02:01:38.113Z,56.24
2018-12-05T02:02:09.707Z,56.37
2018-12-05T02:02:41.301Z,56.31
2018-12-05T02:03:12.894Z,56.30
2018-12-05T02:03:44.490Z,56.25
2018-12-05T02:04:16.092Z,56.18
2018-12-05T02:04:47.723Z,56.32
2018-12-05T02:05:19.328Z,56.38
2018-12-05T02:05:50.968Z,56.46
2018-12-05T02:06:22.558Z,56.21
2018-12-05T02:06:54.169Z,56.20
2018-12-05T02:07:25.770Z,56.32
2018-12-05T02:07:57.361Z,56.31
2018-12-05T02:08:28.965Z,56.32
2018-12-05T02:09:00.587Z,56.24
2018-12-05T02:09:32.210Z,56.16
2018-12-05T02:10:03.793Z,56.27
2018-12-05T02:10:35.396Z,56.20
2018-12-05T02:11:06.993Z,56.30
2018-12-05T02:11:38.599Z,56.36
2018-12-05T02:12:10.212Z,56.40
2018-12-05T02:12:41.805Z,56.57
2018-12-05T02:13:13.402Z,57.03
2018-12-05T02:13:44.998Z,57.03
2018-12-05T02:14:16.613Z,56.69
2018-12-05T02:14:48.238Z,56.57
2018-12-05T02:15:19.831Z,56.75
2018-12-05T02:15:51.435Z,56.70
2018-12-05T02:16:23.044Z,56.73
2018-12-05T02:16:54.642Z,56.65
2018-12-05T02:17:26.238Z,56.68
2018-12-05T02:17:57.832Z,56.61
2018-12-05T02:18:29.416Z,56.53
2018-12-05T02:19:00.996Z,56.41
2018-12-05T02:19:32.632Z,56.49
2018-12-05T02:20:04.253Z,56.40
2018-12-05T02:20:35.860Z,56.20
2018-12-05T02:21:07.464Z,56.23
2018-12-05T02:21:39.080Z,56.12
2018-12-05T02:22:10.674Z,56.04
2018-12-05T02:22:42.272Z,55.87
2018-12-05T02:23:13.866Z,55.88
2018-12-05T02:23:45.448Z,55.83
2018-12-05T02:24:17.046Z,55.84
2018-12-05T02:24:48.669Z,55.83
2018-12-05T02:25:20.276Z,55.69
2018-12-05T02:25:51.874Z,55.72
2018-12-05T02:26:23.466Z,55.72
2018-12-05T02:26:55.049Z,55.58
2018-12-05T02:27:26.668Z,55.37
2018-12-05T02:27:58.280Z,55.37
2018-12-05T02:28:29.864Z,55.48
2018-12-05T02:29:01.455Z,55.40
2018-12-05T02:29:38.947Z,55.41
2018-12-05T02:30:10.621Z,55.23
2018-12-05T02:30:42.214Z,55.18
2018-12-05T02:31:13.814Z,55.20
2018-12-05T02:31:45.409Z,55.25
2018-12-05T02:32:16.996Z,55.25
2018-12-05T02:32:48.599Z,55.22
2018-12-05T02:33:20.199Z,55.12
2018-12-05T02:33:51.812Z,55.05
2018-12-05T02:34:23.421Z,55.06
2018-12-05T02:34:55.033Z,54.96
2018-12-05T02:35:26.616Z,54.93
2018-12-05T02:35:58.213Z,55.03
2018-12-05T02:36:29.821Z,54.98
2018-12-05T02:37:01.430Z,54.98
2018-12-05T02:37:33.030Z,54.93
2018-12-05T02:38:04.626Z,55.06
2018-12-05T02:38:36.232Z,54.91
2018-12-05T02:39:07.812Z,54.93
2018-12-05T02:39:39.446Z,54.96
2018-12-05T02:40:11.066Z,54.87
2018-12-05T02:40:42.676Z,54.90
2018-12-05T02:41:14.271Z,54.76
2018-12-05T02:41:45.868Z,54.88
2018-12-05T02:42:17.466Z,54.93
2018-12-05T02:42:49.061Z,54.94
2018-12-05T02:43:20.673Z,54.92
2018-12-05T02:43:52.270Z,54.85
2018-12-05T02:44:23.865Z,54.87
2018-12-05T02:44:55.496Z,54.91
2018-12-05T02:45:27.098Z,54.87
2018-12-05T02:45:58.700Z,54.95
2018-12-05T02:46:30.306Z,54.93
2018-12-05T02:47:01.885Z,54.84
2018-12-05T02:47:33.485Z,54.93
2018-12-05T02:48:05.096Z,54.85
2018-12-05T02:48:36.690Z,54.88
2018-12-05T02:49:08.288Z,54.90
2018-12-05T02:49:39.909Z,54.91
2018-12-05T02:50:11.540Z,54.92
2018-12-05T02:50:43.124Z,54.95
2018-12-05T02:51:14.726Z,54.98
2018-12-05T02:51:46.335Z,54.97
2018-12-05T02:52:17.934Z,55.03
2018-12-05T02:52:49.521Z,55.03
2018-12-05T02:53:21.117Z,55.07
2018-12-05T02:53:52.790Z,55.05
2018-12-05T02:54:24.390Z,55.12
2018-12-05T02:54:56.000Z,55.08
2018-12-05T02:55:27.612Z,55.39
2018-12-05T02:55:59.225Z,55.22
2018-12-05T02:56:30.831Z,55.35
2018-12-05T02:57:02.461Z,55.41
2018-12-05T02:57:34.054Z,55.54
2018-12-05T02:58:05.646Z,55.54
2018-12-05T02:58:37.247Z,55.62
2018-12-05T02:59:08.856Z,55.71
2018-12-05T02:59:40.464Z,55.80
2018-12-05T03:00:12.091Z,55.78
2018-12-05T03:00:43.683Z,55.93
2018-12-05T03:01:15.300Z,55.90
2018-12-05T03:01:46.911Z,55.96
2018-12-05T03:02:18.511Z,55.95
2018-12-05T03:02:50.111Z,56.03
2018-12-05T03:03:21.697Z,56.02
2018-12-05T03:03:53.310Z,56.12
2018-12-05T03:04:24.912Z,56.20
2018-12-05T03:04:56.539Z,56.27
2018-12-05T03:05:28.143Z,56.33
2018-12-05T03:05:59.753Z,56.26
2018-12-05T03:06:31.365Z,56.19
2018-12-05T03:07:03.077Z,56.16
2018-12-05T03:07:34.753Z,56.27
2018-12-05T03:08:06.340Z,56.42
2018-12-05T03:08:37.956Z,56.19
2018-12-05T03:09:09.555Z,56.27
2018-12-05T03:09:41.151Z,56.60
2018-12-05T03:10:12.770Z,56.68
2018-12-05T03:10:44.361Z,56.55
2018-12-05T03:11:15.953Z,56.58
2018-12-05T03:11:47.565Z,56.57
2018-12-05T03:12:19.163Z,56.67
2018-12-05T03:12:50.744Z,56.63
2018-12-05T03:13:22.333Z,56.75
2018-12-05T03:13:53.944Z,56.68
2018-12-05T03:14:25.556Z,56.62
2018-12-05T03:14:57.190Z,57.04
2018-12-05T03:15:28.789Z,56.90
2018-12-05T03:16:00.409Z,56.77
2018-12-05T03:16:32.011Z,56.81
2018-12-05T03:17:03.630Z,57.01
2018-12-05T03:17:35.225Z,57.00
2018-12-05T03:18:06.823Z,57.00
2018-12-05T03:18:38.438Z,57.05
2018-12-05T03:19:10.034Z,57.00
2018-12-05T03:19:41.630Z,56.97
2018-12-05T03:20:13.254Z,56.95
2018-12-05T03:20:44.869Z,57.00
2018-12-05T03:21:16.482Z,56.97
2018-12-05T03:21:48.078Z,56.96
2018-12-05T03:22:19.671Z,56.97
2018-12-05T03:22:51.262Z,56.98
2018-12-05T03:23:22.854Z,56.93
2018-12-05T03:23:54.450Z,56.98
2018-12-05T03:24:26.050Z,56.94
2018-12-05T03:24:57.686Z,56.93
2018-12-05T03:25:29.311Z,56.93
2018-12-05T03:26:00.901Z,56.96
2018-12-05T03:26:32.494Z,57.00
2018-12-05T03:27:04.098Z,56.99
2018-12-05T03:27:35.691Z,56.92
2018-12-05T03:28:07.289Z,56.85
2018-12-05T03:28:38.886Z,57.13
2018-12-05T03:29:10.482Z,57.27
2018-12-05T03:29:42.078Z,57.08
2018-12-05T03:30:13.693Z,57.27
2018-12-05T03:30:45.292Z,57.17
2018-12-05T03:31:16.897Z,57.28
2018-12-05T03:31:48.495Z,57.23
2018-12-05T03:32:20.114Z,57.18
2018-12-05T03:32:51.712Z,57.19
2018-12-05T03:33:23.329Z,57.10
2018-12-05T03:33:54.958Z,57.14
2018-12-05T03:34:26.562Z,57.19
2018-12-05T03:34:58.160Z,57.14
2018-12-05T03:35:35.556Z,57.35
2018-12-05T03:36:07.151Z,57.29
2018-12-05T03:36:38.747Z,57.28
2018-12-05T03:37:10.383Z,57.16
2018-12-05T03:37:41.975Z,57.06
2018-12-05T03:38:13.769Z,57.36
2018-12-05T03:38:45.366Z,57.32
2018-12-05T03:39:16.958Z,57.12
2018-12-05T03:39:48.566Z,57.28
2018-12-05T03:40:20.195Z,57.11
2018-12-05T03:40:51.808Z,56.97
2018-12-05T03:41:23.400Z,57.51
2018-12-05T03:41:54.985Z,57.72
2018-12-05T03:42:26.595Z,57.66
2018-12-05T03:42:58.208Z,57.07
2018-12-05T03:43:29.811Z,56.93
2018-12-05T03:44:01.406Z,57.03
2018-12-05T03:44:33.007Z,56.98
2018-12-05T03:45:04.664Z,56.70
2018-12-05T03:45:36.279Z,56.58
2018-12-05T03:46:07.879Z,56.43
2018-12-05T03:46:39.497Z,56.29
2018-12-05T03:47:11.109Z,56.07
2018-12-05T03:47:42.715Z,55.92
2018-12-05T03:48:14.337Z,55.91
2018-12-05T03:48:45.948Z,55.77
2018-12-05T03:49:17.536Z,55.51
2018-12-05T03:49:49.129Z,55.62
2018-12-05T03:50:20.758Z,55.39
2018-12-05T03:50:52.363Z,55.20
2018-12-05T03:51:23.974Z,55.09
2018-12-05T03:51:55.590Z,54.97
2018-12-05T03:52:27.189Z,54.98
2018-12-05T03:52:58.799Z,54.72
2018-12-05T03:53:30.414Z,54.61
2018-12-05T03:54:02.019Z,54.67
2018-12-05T03:54:33.626Z,54.63
2018-12-05T03:55:05.222Z,54.60
2018-12-05T03:55:36.830Z,54.62
2018-12-05T03:56:08.427Z,54.29
2018-12-05T03:56:40.045Z,54.12
2018-12-05T03:57:11.669Z,53.92
2018-12-05T03:57:43.266Z,53.69
2018-12-05T03:58:14.875Z,53.49
2018-12-05T03:58:46.530Z,52.69
2018-12-05T03:59:18.133Z,52.67
2018-12-05T03:59:49.761Z,52.65
2018-12-05T04:00:21.400Z,52.33
2018-12-05T04:00:52.998Z,52.61
2018-12-05T04:01:24.595Z,52.28
2018-12-05T04:01:56.209Z,52.08
2018-12-05T04:02:27.793Z,51.87
2018-12-05T04:02:59.385Z,51.65
2018-12-05T04:03:30.996Z,51.67
2018-12-05T04:04:02.602Z,51.63
2018-12-05T04:04:34.395Z,51.60
2018-12-05T04:05:06.044Z,51.58
2018-12-05T04:05:37.643Z,51.62
2018-12-05T04:06:09.239Z,51.62
2018-12-05T04:06:40.826Z,51.66
2018-12-05T04:07:12.413Z,51.67
2018-12-05T04:07:44.004Z,51.67
2018-12-05T04:08:15.594Z,51.74
2018-12-05T04:08:47.206Z,51.74
2018-12-05T04:09:18.796Z,51.74
2018-12-05T04:09:50.404Z,51.79
2018-12-05T04:10:22.011Z,51.78
2018-12-05T04:10:53.617Z,51.81
2018-12-05T04:11:25.225Z,51.86
2018-12-05T04:11:56.822Z,51.89
2018-12-05T04:12:28.418Z,51.94
2018-12-05T04:13:00.001Z,52.05
2018-12-05T04:13:31.604Z,52.01
2018-12-05T04:14:03.212Z,52.05
2018-12-05T04:14:34.801Z,52.06
2018-12-05T04:15:06.394Z,52.13
2018-12-05T04:15:37.990Z,52.11
2018-12-05T04:16:09.600Z,52.15
2018-12-05T04:16:41.193Z,52.18
2018-12-05T04:17:12.801Z,52.23
2018-12-05T04:17:44.396Z,52.26
2018-12-05T04:18:16.000Z,52.26
2018-12-05T04:18:47.710Z,52.28
2018-12-05T04:19:19.310Z,52.34
2018-12-05T04:19:50.920Z,52.35
2018-12-05T04:20:22.559Z,52.36
2018-12-05T04:20:54.144Z,52.39
2018-12-05T04:21:25.734Z,52.43
2018-12-05T04:21:57.344Z,52.41
2018-12-05T04:22:29.272Z,52.47
2018-12-05T04:23:01.093Z,52.51
2018-12-05T04:23:32.997Z,52.54
2018-12-05T04:24:04.957Z,52.53
2018-12-05T04:24:36.878Z,52.54
2018-12-05T04:25:08.809Z,52.59
2018-12-05T04:25:40.472Z,52.57
2018-12-05T04:26:12.079Z,52.61
2018-12-05T04:26:43.698Z,52.64
2018-12-05T04:27:15.290Z,52.71
2018-12-05T04:27:46.878Z,52.71
2018-12-05T04:28:18.479Z,52.77
2018-12-05T04:28:50.217Z,52.77
2018-12-05T04:29:21.813Z,52.76
2018-12-05T04:29:53.406Z,52.78
2018-12-05T04:30:25.065Z,52.78
2018-12-05T04:30:56.663Z,52.81
2018-12-05T04:31:28.294Z,52.87
2018-12-05T04:31:59.890Z,52.89
2018-12-05T04:32:31.500Z,52.89
2018-12-05T04:33:03.120Z,52.91
2018-12-05T04:33:34.727Z,52.91
2018-12-05T04:34:06.332Z,52.94
2018-12-05T04:34:38.065Z,52.97
2018-12-05T04:35:09.610Z,53.00
2018-12-05T04:35:41.217Z,53.01
2018-12-05T04:36:12.830Z,53.02
2018-12-05T04:36:44.423Z,53.05
2018-12-05T04:37:16.034Z,53.05
2018-12-05T04:37:47.652Z,53.05
2018-12-05T04:38:19.246Z,53.07
2018-12-05T04:38:50.851Z,53.10
2018-12-05T04:39:22.436Z,53.12
2018-12-05T04:39:54.029Z,53.11
2018-12-05T04:40:25.623Z,53.12
2018-12-05T04:40:57.241Z,53.10
2018-12-05T04:41:28.838Z,53.14
2018-12-05T04:42:00.429Z,53.14
2018-12-05T04:42:32.021Z,53.13
2018-12-05T04:43:03.623Z,53.16
2018-12-05T04:43:35.236Z,53.15
2018-12-05T04:44:06.823Z,53.15
2018-12-05T04:44:38.436Z,53.16
2018-12-05T04:45:10.050Z,53.17
2018-12-05T04:45:41.674Z,53.21
2018-12-05T04:46:13.272Z,53.20
2018-12-05T04:46:44.877Z,53.22
2018-12-05T04:47:16.491Z,53.21
2018-12-05T04:47:48.104Z,53.21
2018-12-05T04:48:19.701Z,53.22
2018-12-05T04:48:51.337Z,53.22
2018-12-05T04:49:22.935Z,53.22
2018-12-05T04:49:54.540Z,53.22
2018-12-05T04:50:26.140Z,53.22
2018-12-05T04:50:57.772Z,53.24
2018-12-05T04:51:29.370Z,53.24
2018-12-05T04:52:00.956Z,53.24
2018-12-05T04:52:32.550Z,53.23
2018-12-05T04:53:04.157Z,53.23
2018-12-05T04:53:35.759Z,53.22
2018-12-05T04:54:07.355Z,53.17
2018-12-05T04:54:38.946Z,53.23
2018-12-05T04:55:10.555Z,53.19
2018-12-05T04:55:42.155Z,53.21
2018-12-05T04:56:13.782Z,53.22
2018-12-05T04:56:45.379Z,53.19
2018-12-05T04:57:16.964Z,53.17
2018-12-05T04:57:48.579Z,53.15
2018-12-05T04:58:20.176Z,53.14
2018-12-05T04:58:52.073Z,53.10
2018-12-05T04:59:23.682Z,53.08
2018-12-05T04:59:55.269Z,53.09
2018-12-05T05:00:26.862Z,53.06
2018-12-05T05:00:58.501Z,53.01
2018-12-05T05:01:30.099Z,53.00
2018-12-05T05:02:01.716Z,52.94
2018-12-05T05:02:33.331Z,52.94
2018-12-05T05:03:04.941Z,52.90
2018-12-05T05:03:36.538Z,52.87
2018-12-05T05:04:08.155Z,52.81
2018-12-05T05:04:39.776Z,52.75
2018-12-05T05:05:11.380Z,52.69
2018-12-05T05:05:42.974Z,52.69
2018-12-05T05:06:14.593Z,52.63
2018-12-05T05:06:46.192Z,52.59
2018-12-05T05:07:17.790Z,52.56
2018-12-05T05:07:49.383Z,52.52
2018-12-05T05:08:20.979Z,52.46
2018-12-05T05:08:52.574Z,52.39
2018-12-05T05:09:24.166Z,52.33
2018-12-05T05:09:55.789Z,52.27
2018-12-05T05:10:27.392Z,52.23
2018-12-05T05:10:59.004Z,52.17
2018-12-05T05:11:30.672Z,52.15
2018-12-05T05:12:02.280Z,52.09
2018-12-05T05:12:33.887Z,52.02
2018-12-05T05:13:05.502Z,51.98
2018-12-05T05:13:37.089Z,51.92
2018-12-05T05:14:08.682Z,51.87
2018-12-05T05:14:40.294Z,51.81
2018-12-05T05:15:11.893Z,51.71
2018-12-05T05:15:43.493Z,51.65
2018-12-05T05:16:15.200Z,51.59
2018-12-05T05:16:46.791Z,51.52
2018-12-05T05:17:18.376Z,51.50
2018-12-05T05:17:49.974Z,51.45
2018-12-05T05:18:21.566Z,51.34
2018-12-05T05:18:53.154Z,51.32
2018-12-05T05:19:24.753Z,51.28
2018-12-05T05:19:56.340Z,51.29
2018-12-05T05:20:27.948Z,51.23
2018-12-05T05:20:59.574Z,51.21
2018-12-05T05:21:31.184Z,51.16
2018-12-05T05:22:02.804Z,51.15
2018-12-05T05:22:34.419Z,51.13
2018-12-05T05:23:06.007Z,51.10
2018-12-05T05:23:37.637Z,51.08
2018-12-05T05:24:09.235Z,51.09
2018-12-05T05:24:40.848Z,51.01
2018-12-05T05:25:12.474Z,51.03
2018-12-05T05:25:44.080Z,51.01
2018-12-05T05:26:15.699Z,51.01
2018-12-05T05:26:47.308Z,51.06
2018-12-05T05:27:18.902Z,51.03
2018-12-05T05:27:50.509Z,51.01
2018-12-05T05:28:22.140Z,51.01
2018-12-05T05:28:53.724Z,51.05
2018-12-05T05:29:25.341Z,51.05
2018-12-05T05:29:56.934Z,51.09
2018-12-05T05:30:28.536Z,51.05
2018-12-05T05:31:00.139Z,51.07
2018-12-05T05:31:31.780Z,51.10
2018-12-05T05:32:03.378Z,51.07
2018-12-05T05:32:34.984Z,51.09
2018-12-05T05:33:06.595Z,51.12
2018-12-05T05:33:38.192Z,51.15
2018-12-05T05:34:09.791Z,51.17
2018-12-05T05:34:41.372Z,51.22
2018-12-05T05:35:12.980Z,51.22
2018-12-05T05:35:44.569Z,51.25
2018-12-05T05:36:16.275Z,51.29
2018-12-05T05:36:47.867Z,51.27
2018-12-05T05:37:19.476Z,51.29
2018-12-05T05:37:51.081Z,51.33
2018-12-05T05:38:22.672Z,51.37
2018-12-05T05:38:54.266Z,51.37
2018-12-05T05:39:25.863Z,51.41
2018-12-05T05:39:57.471Z,51.40
2018-12-05T05:40:29.076Z,51.41
2018-12-05T05:41:00.660Z,51.39
2018-12-05T05:41:32.292Z,51.41
2018-12-05T05:42:03.874Z,51.41
2018-12-05T05:42:35.469Z,51.44
2018-12-05T05:43:07.159Z,51.48
2018-12-05T05:43:38.781Z,51.51
2018-12-05T05:44:10.394Z,51.55
2018-12-05T05:44:41.986Z,51.58
2018-12-05T05:45:13.602Z,51.60
2018-12-05T05:45:45.198Z,51.63
2018-12-05T05:46:16.832Z,51.67
2018-12-05T05:46:48.440Z,51.68
2018-12-05T05:47:20.048Z,51.69
2018-12-05T05:47:51.655Z,51.69
2018-12-05T05:48:23.240Z,51.73
2018-12-05T05:48:55.920Z,51.69
2018-12-05T05:49:27.514Z,51.76
2018-12-05T05:49:59.109Z,51.76
2018-12-05T05:50:30.710Z,51.76
2018-12-05T05:51:02.302Z,51.80
2018-12-05T05:51:33.922Z,51.82
2018-12-05T05:52:05.514Z,51.87
2018-12-05T05:52:37.106Z,51.87
2018-12-05T05:53:08.693Z,51.94
2018-12-05T05:53:40.298Z,51.92
2018-12-05T05:54:11.894Z,51.96
2018-12-05T05:54:43.487Z,51.97
2018-12-05T05:55:15.074Z,52.05
2018-12-05T05:55:46.680Z,52.05
2018-12-05T05:56:18.331Z,52.02
2018-12-05T05:56:49.952Z,52.06
2018-12-05T05:57:21.551Z,52.08
2018-12-05T05:57:53.160Z,52.12
2018-12-05T05:58:24.759Z,52.12
2018-12-05T05:58:56.360Z,52.17
2018-12-05T05:59:27.963Z,52.16
2018-12-05T05:59:59.633Z,52.16
2018-12-05T06:00:31.235Z,52.21
2018-12-05T06:01:02.836Z,52.22
2018-12-05T06:01:34.463Z,52.22
2018-12-05T06:02:06.058Z,52.23
2018-12-05T06:02:37.650Z,52.25
2018-12-05T06:03:09.246Z,52.29
2018-12-05T06:03:40.852Z,52.28
2018-12-05T06:04:12.436Z,52.34
2018-12-05T06:04:44.030Z,52.33
2018-12-05T06:05:15.650Z,52.33
2018-12-05T06:05:47.251Z,52.35
2018-12-05T06:06:18.856Z,52.36
2018-12-05T06:06:50.484Z,52.37
2018-12-05T06:07:22.083Z,52.37
2018-12-05T06:07:53.683Z,52.38
2018-12-05T06:08:25.293Z,52.34
2018-12-05T06:08:56.894Z,52.35
2018-12-05T06:09:28.487Z,52.39
2018-12-05T06:10:00.091Z,52.41
2018-12-05T06:10:31.701Z,52.41
2018-12-05T06:11:03.284Z,52.42
2018-12-05T06:11:34.912Z,52.42
2018-12-05T06:12:06.510Z,52.43
2018-12-05T06:12:38.112Z,52.42
2018-12-05T06:13:09.723Z,52.42
2018-12-05T06:13:41.327Z,52.39
2018-12-05T06:14:12.923Z,52.37
2018-12-05T06:14:44.518Z,52.36
2018-12-05T06:15:16.111Z,52.36
2018-12-05T06:15:47.705Z,52.33
2018-12-05T06:16:19.312Z,52.33
2018-12-05T06:16:50.909Z,52.35
2018-12-05T06:17:22.515Z,52.32
2018-12-05T06:17:54.111Z,52.29
2018-12-05T06:18:25.716Z,52.28
2018-12-05T06:18:57.315Z,52.32
2018-12-05T06:19:28.897Z,52.32
2018-12-05T06:20:00.493Z,52.29
2018-12-05T06:20:32.105Z,52.23
2018-12-05T06:21:03.709Z,52.23
2018-12-05T06:21:35.316Z,52.20
2018-12-05T06:22:06.905Z,52.17
2018-12-05T06:22:38.503Z,52.12
2018-12-05T06:23:10.098Z,52.03
2018-12-05T06:23:41.694Z,52.06
2018-12-05T06:24:13.295Z,52.02
2018-12-05T06:24:44.909Z,51.98
2018-12-05T06:25:16.517Z,51.97
2018-12-05T06:25:48.114Z,51.90
2018-12-05T06:26:19.706Z,51.85
2018-12-05T06:26:51.302Z,51.80
2018-12-05T06:27:22.919Z,51.76
2018-12-05T06:27:54.513Z,51.68
2018-12-05T06:28:26.102Z,51.64
2018-12-05T06:28:57.702Z,51.61
2018-12-05T06:29:29.302Z,51.55
2018-12-05T06:30:00.906Z,51.47
2018-12-05T06:30:32.496Z,51.45
2018-12-05T06:31:04.100Z,51.38
2018-12-05T06:31:35.729Z,51.32
2018-12-05T06:32:07.338Z,51.23
2018-12-05T06:32:38.920Z,51.13
2018-12-05T06:33:10.518Z,51.06
2018-12-05T06:33:42.122Z,50.99
2018-12-05T06:34:13.726Z,50.92
2018-12-05T06:34:45.335Z,50.88
2018-12-05T06:35:16.933Z,50.83
2018-12-05T06:35:48.520Z,50.74
2018-12-05T06:36:20.128Z,50.68
2018-12-05T06:36:51.735Z,50.60
2018-12-05T06:37:23.319Z,50.50
2018-12-05T06:37:54.924Z,50.43
2018-12-05T06:38:26.520Z,50.40
2018-12-05T06:38:59.477Z,50.35
2018-12-05T06:39:29.783Z,50.29
2018-12-05T06:40:01.378Z,50.23
2018-12-05T06:40:32.981Z,50.18
2018-12-05T06:41:04.592Z,50.16
2018-12-05T06:41:36.190Z,50.08
2018-12-05T06:42:07.782Z,50.08
2018-12-05T06:42:39.379Z,50.03
2018-12-05T06:43:10.992Z,50.00
2018-12-05T06:43:42.590Z,49.95
2018-12-05T06:44:14.196Z,49.95
2018-12-05T06:44:45.790Z,49.87
2018-12-05T06:45:17.382Z,49.88
2018-12-05T06:45:48.987Z,49.82
2018-12-05T06:46:20.600Z,49.79
2018-12-05T06:46:52.222Z,49.75
2018-12-05T06:47:23.804Z,49.74